sensor_id;sensor_type;location;lat;lon;timestamp;P1;durP1;ratioP1;P2;durP2;ratioP2
12383;SDS011;6256;63.808;20.336;2023-02-15T00:01:23;3.03;;;1.60;;
12383;SDS011;6256;63.808;20.336;2023-02-15T00:03:49;1.60;;;1.17;;
12383;SDS011;6256;63.808;20.336;2023-02-15T00:06:16;2.70;;;1.60;;
12383;SDS011;6256;63.808;20.336;2023-02-15T00:08:42;2.97;;;1.90;;
12383;SDS011;6256;63.808;20.336;2023-02-15T00:11:12;2.37;;;1.30;;
12383;SDS011;6256;63.808;20.336;2023-02-15T00:13:39;3.03;;;1.40;;
12383;SDS011;6256;63.808;20.336;2023-02-15T00:16:09;2.43;;;1.40;;
12383;SDS011;6256;63.808;20.336;2023-02-15T00:18:37;2.10;;;1.37;;
12383;SDS011;6256;63.808;20.336;2023-02-15T00:21:04;2.60;;;1.60;;
12383;SDS011;6256;63.808;20.336;2023-02-15T00:23:33;1.37;;;1.27;;
12383;SDS011;6256;63.808;20.336;2023-02-15T00:26:06;3.60;;;1.97;;
12383;SDS011;6256;63.808;20.336;2023-02-15T00:28:33;2.30;;;1.67;;
12383;SDS011;6256;63.808;20.336;2023-02-15T00:31:06;1.60;;;1.50;;
12383;SDS011;6256;63.808;20.336;2023-02-15T00:33:33;1.83;;;1.40;;
12383;SDS011;6256;63.808;20.336;2023-02-15T00:35:59;2.40;;;1.47;;
12383;SDS011;6256;63.808;20.336;2023-02-15T00:38:26;1.67;;;1.40;;
12383;SDS011;6256;63.808;20.336;2023-02-15T00:40:53;5.97;;;1.40;;
12383;SDS011;6256;63.808;20.336;2023-02-15T00:43:20;4.30;;;1.53;;
12383;SDS011;6256;63.808;20.336;2023-02-15T00:45:46;1.40;;;1.27;;
12383;SDS011;6256;63.808;20.336;2023-02-15T00:48:11;1.90;;;1.30;;
12383;SDS011;6256;63.808;20.336;2023-02-15T00:50:37;1.40;;;1.30;;
12383;SDS011;6256;63.808;20.336;2023-02-15T00:53:03;2.10;;;1.80;;
12383;SDS011;6256;63.808;20.336;2023-02-15T00:55:29;2.20;;;1.20;;
12383;SDS011;6256;63.808;20.336;2023-02-15T00:57:54;2.67;;;1.50;;
12383;SDS011;6256;63.808;20.336;2023-02-15T01:00:20;2.17;;;1.50;;
12383;SDS011;6256;63.808;20.336;2023-02-15T01:02:46;3.07;;;1.80;;
12383;SDS011;6256;63.808;20.336;2023-02-15T01:05:11;3.80;;;1.50;;
12383;SDS011;6256;63.808;20.336;2023-02-15T01:07:37;2.27;;;1.53;;
12383;SDS011;6256;63.808;20.336;2023-02-15T01:10:04;1.53;;;1.43;;
12383;SDS011;6256;63.808;20.336;2023-02-15T01:12:31;2.33;;;1.70;;
12383;SDS011;6256;63.808;20.336;2023-02-15T01:14:57;1.33;;;1.23;;
12383;SDS011;6256;63.808;20.336;2023-02-15T01:17:23;3.10;;;1.80;;
12383;SDS011;6256;63.808;20.336;2023-02-15T01:19:49;2.63;;;1.60;;
12383;SDS011;6256;63.808;20.336;2023-02-15T01:22:19;2.13;;;1.57;;
12383;SDS011;6256;63.808;20.336;2023-02-15T01:24:44;1.77;;;1.40;;
12383;SDS011;6256;63.808;20.336;2023-02-15T01:27:10;2.37;;;1.83;;
12383;SDS011;6256;63.808;20.336;2023-02-15T01:29:36;1.83;;;1.70;;
12383;SDS011;6256;63.808;20.336;2023-02-15T01:32:02;3.10;;;1.93;;
12383;SDS011;6256;63.808;20.336;2023-02-15T01:34:28;1.67;;;1.53;;
12383;SDS011;6256;63.808;20.336;2023-02-15T01:36:54;2.97;;;1.43;;
12383;SDS011;6256;63.808;20.336;2023-02-15T01:39:20;1.80;;;1.47;;
12383;SDS011;6256;63.808;20.336;2023-02-15T01:41:45;3.10;;;1.67;;
12383;SDS011;6256;63.808;20.336;2023-02-15T01:47:10;2.40;;;1.73;;
12383;SDS011;6256;63.808;20.336;2023-02-15T01:49:41;3.03;;;1.40;;
12383;SDS011;6256;63.808;20.336;2023-02-15T01:52:10;1.80;;;1.70;;
12383;SDS011;6256;63.808;20.336;2023-02-15T01:54:38;3.53;;;2.10;;
12383;SDS011;6256;63.808;20.336;2023-02-15T01:57:07;1.63;;;1.40;;
12383;SDS011;6256;63.808;20.336;2023-02-15T01:59:37;3.43;;;1.43;;
12383;SDS011;6256;63.808;20.336;2023-02-15T02:02:07;2.63;;;1.40;;
12383;SDS011;6256;63.808;20.336;2023-02-15T02:07:01;2.40;;;1.40;;
12383;SDS011;6256;63.808;20.336;2023-02-15T02:09:29;3.27;;;1.70;;
12383;SDS011;6256;63.808;20.336;2023-02-15T02:11:55;2.70;;;1.63;;
12383;SDS011;6256;63.808;20.336;2023-02-15T02:14:21;1.80;;;1.63;;
12383;SDS011;6256;63.808;20.336;2023-02-15T02:28:22;2.07;;;1.50;;
12383;SDS011;6256;63.808;20.336;2023-02-15T02:34:16;3.27;;;1.73;;
12383;SDS011;6256;63.808;20.336;2023-02-15T02:45:00;1.90;;;1.43;;
12383;SDS011;6256;63.808;20.336;2023-02-15T02:47:29;2.90;;;1.40;;
12383;SDS011;6256;63.808;20.336;2023-02-15T02:50:03;4.80;;;1.63;;
12383;SDS011;6256;63.808;20.336;2023-02-15T02:52:38;1.47;;;1.37;;
12383;SDS011;6256;63.808;20.336;2023-02-15T02:57:53;1.53;;;1.43;;
12383;SDS011;6256;63.808;20.336;2023-02-15T03:00:20;1.60;;;1.27;;
12383;SDS011;6256;63.808;20.336;2023-02-15T03:02:49;2.40;;;1.47;;
12383;SDS011;6256;63.808;20.336;2023-02-15T03:05:21;2.27;;;1.37;;
12383;SDS011;6256;63.808;20.336;2023-02-15T03:07:50;4.20;;;1.57;;
12383;SDS011;6256;63.808;20.336;2023-02-15T03:10:18;1.27;;;1.17;;
12383;SDS011;6256;63.808;20.336;2023-02-15T03:12:47;2.10;;;1.30;;
12383;SDS011;6256;63.808;20.336;2023-02-15T03:15:24;7.67;;;2.00;;
12383;SDS011;6256;63.808;20.336;2023-02-15T03:18:13;2.10;;;1.17;;
12383;SDS011;6256;63.808;20.336;2023-02-15T03:20:41;1.50;;;1.40;;
12383;SDS011;6256;63.808;20.336;2023-02-15T03:23:09;2.40;;;1.63;;
12383;SDS011;6256;63.808;20.336;2023-02-15T03:25:42;2.30;;;1.47;;
12383;SDS011;6256;63.808;20.336;2023-02-15T03:28:13;2.23;;;1.77;;
12383;SDS011;6256;63.808;20.336;2023-02-15T03:30:45;4.10;;;2.13;;
12383;SDS011;6256;63.808;20.336;2023-02-15T03:33:14;6.97;;;2.53;;
12383;SDS011;6256;63.808;20.336;2023-02-15T03:35:44;2.13;;;1.63;;
12383;SDS011;6256;63.808;20.336;2023-02-15T03:38:13;3.77;;;2.00;;
12383;SDS011;6256;63.808;20.336;2023-02-15T03:40:46;2.87;;;1.53;;
12383;SDS011;6256;63.808;20.336;2023-02-15T03:48:45;2.53;;;1.80;;
12383;SDS011;6256;63.808;20.336;2023-02-15T03:51:17;2.00;;;1.40;;
12383;SDS011;6256;63.808;20.336;2023-02-15T03:54:08;4.03;;;2.10;;
12383;SDS011;6256;63.808;20.336;2023-02-15T03:57:03;1.60;;;1.50;;
12383;SDS011;6256;63.808;20.336;2023-02-15T03:59:50;3.67;;;1.70;;
12383;SDS011;6256;63.808;20.336;2023-02-15T04:02:37;3.90;;;1.57;;
12383;SDS011;6256;63.808;20.336;2023-02-15T04:05:09;3.57;;;1.60;;
12383;SDS011;6256;63.808;20.336;2023-02-15T04:07:35;3.97;;;1.70;;
12383;SDS011;6256;63.808;20.336;2023-02-15T04:10:01;1.37;;;1.00;;
12383;SDS011;6256;63.808;20.336;2023-02-15T04:12:45;1.57;;;1.17;;
12383;SDS011;6256;63.808;20.336;2023-02-15T04:15:13;5.57;;;1.97;;
12383;SDS011;6256;63.808;20.336;2023-02-15T04:17:58;2.43;;;1.33;;
12383;SDS011;6256;63.808;20.336;2023-02-15T04:20:27;1.90;;;1.63;;
12383;SDS011;6256;63.808;20.336;2023-02-15T04:23:11;1.83;;;1.37;;
12383;SDS011;6256;63.808;20.336;2023-02-15T04:25:55;1.50;;;1.43;;
12383;SDS011;6256;63.808;20.336;2023-02-15T04:28:20;1.93;;;1.40;;
12383;SDS011;6256;63.808;20.336;2023-02-15T04:30:47;1.07;;;1.03;;
12383;SDS011;6256;63.808;20.336;2023-02-15T04:33:12;4.33;;;1.77;;
12383;SDS011;6256;63.808;20.336;2023-02-15T04:35:38;2.93;;;1.80;;
12383;SDS011;6256;63.808;20.336;2023-02-15T04:38:04;2.57;;;1.70;;
12383;SDS011;6256;63.808;20.336;2023-02-15T04:40:29;1.10;;;1.00;;
12383;SDS011;6256;63.808;20.336;2023-02-15T04:42:55;3.43;;;1.77;;
12383;SDS011;6256;63.808;20.336;2023-02-15T04:45:21;9.00;;;2.17;;
12383;SDS011;6256;63.808;20.336;2023-02-15T04:47:46;2.13;;;1.87;;
12383;SDS011;6256;63.808;20.336;2023-02-15T04:50:12;2.73;;;2.00;;
12383;SDS011;6256;63.808;20.336;2023-02-15T04:52:38;2.27;;;1.63;;
12383;SDS011;6256;63.808;20.336;2023-02-15T04:55:04;1.97;;;1.53;;
12383;SDS011;6256;63.808;20.336;2023-02-15T04:57:30;1.53;;;1.20;;
12383;SDS011;6256;63.808;20.336;2023-02-15T04:59:56;1.43;;;1.33;;
12383;SDS011;6256;63.808;20.336;2023-02-15T05:02:23;4.87;;;2.33;;
12383;SDS011;6256;63.808;20.336;2023-02-15T05:04:49;1.93;;;1.73;;
12383;SDS011;6256;63.808;20.336;2023-02-15T05:07:15;5.07;;;2.03;;
12383;SDS011;6256;63.808;20.336;2023-02-15T05:09:41;1.83;;;1.50;;
12383;SDS011;6256;63.808;20.336;2023-02-15T05:12:06;2.87;;;1.83;;
12383;SDS011;6256;63.808;20.336;2023-02-15T05:14:32;1.80;;;1.50;;
12383;SDS011;6256;63.808;20.336;2023-02-15T05:16:58;5.67;;;1.47;;
12383;SDS011;6256;63.808;20.336;2023-02-15T05:19:26;2.13;;;1.60;;
12383;SDS011;6256;63.808;20.336;2023-02-15T05:21:52;2.03;;;1.67;;
12383;SDS011;6256;63.808;20.336;2023-02-15T05:24:18;3.03;;;1.80;;
12383;SDS011;6256;63.808;20.336;2023-02-15T05:27:19;2.03;;;1.53;;
12383;SDS011;6256;63.808;20.336;2023-02-15T05:30:03;1.50;;;1.40;;
12383;SDS011;6256;63.808;20.336;2023-02-15T05:32:29;1.87;;;1.57;;
12383;SDS011;6256;63.808;20.336;2023-02-15T05:34:55;1.97;;;1.20;;
12383;SDS011;6256;63.808;20.336;2023-02-15T05:37:20;1.50;;;1.33;;
12383;SDS011;6256;63.808;20.336;2023-02-15T05:39:46;2.67;;;2.10;;
12383;SDS011;6256;63.808;20.336;2023-02-15T05:42:12;4.63;;;1.77;;
12383;SDS011;6256;63.808;20.336;2023-02-15T05:44:37;1.50;;;1.40;;
12383;SDS011;6256;63.808;20.336;2023-02-15T05:47:03;1.70;;;1.50;;
12383;SDS011;6256;63.808;20.336;2023-02-15T05:49:32;1.50;;;1.27;;
12383;SDS011;6256;63.808;20.336;2023-02-15T05:51:57;2.83;;;1.90;;
12383;SDS011;6256;63.808;20.336;2023-02-15T05:54:23;2.37;;;1.47;;
12383;SDS011;6256;63.808;20.336;2023-02-15T05:56:49;2.97;;;1.43;;
12383;SDS011;6256;63.808;20.336;2023-02-15T05:59:14;3.60;;;1.67;;
12383;SDS011;6256;63.808;20.336;2023-02-15T06:01:40;2.53;;;1.63;;
12383;SDS011;6256;63.808;20.336;2023-02-15T06:04:06;2.17;;;1.97;;
12383;SDS011;6256;63.808;20.336;2023-02-15T06:06:31;1.70;;;1.53;;
12383;SDS011;6256;63.808;20.336;2023-02-15T06:08:59;3.50;;;1.87;;
12383;SDS011;6256;63.808;20.336;2023-02-15T06:11:25;2.00;;;1.77;;
12383;SDS011;6256;63.808;20.336;2023-02-15T06:13:50;2.90;;;1.83;;
12383;SDS011;6256;63.808;20.336;2023-02-15T06:16:16;1.50;;;1.40;;
12383;SDS011;6256;63.808;20.336;2023-02-15T06:18:42;4.43;;;1.70;;
12383;SDS011;6256;63.808;20.336;2023-02-15T06:21:08;3.63;;;1.77;;
12383;SDS011;6256;63.808;20.336;2023-02-15T06:23:33;3.53;;;1.47;;
12383;SDS011;6256;63.808;20.336;2023-02-15T06:25:59;1.53;;;1.40;;
12383;SDS011;6256;63.808;20.336;2023-02-15T06:28:25;2.27;;;1.23;;
12383;SDS011;6256;63.808;20.336;2023-02-15T06:30:51;2.07;;;1.67;;
12383;SDS011;6256;63.808;20.336;2023-02-15T06:33:17;4.30;;;2.17;;
12383;SDS011;6256;63.808;20.336;2023-02-15T06:35:43;1.50;;;1.40;;
12383;SDS011;6256;63.808;20.336;2023-02-15T06:38:09;2.57;;;1.80;;
12383;SDS011;6256;63.808;20.336;2023-02-15T06:40:35;3.13;;;1.60;;
12383;SDS011;6256;63.808;20.336;2023-02-15T06:43:00;4.00;;;1.93;;
12383;SDS011;6256;63.808;20.336;2023-02-15T06:45:26;4.87;;;2.27;;
12383;SDS011;6256;63.808;20.336;2023-02-15T06:47:52;1.80;;;1.43;;
12383;SDS011;6256;63.808;20.336;2023-02-15T06:50:18;3.50;;;2.33;;
12383;SDS011;6256;63.808;20.336;2023-02-15T06:52:43;2.83;;;1.60;;
12383;SDS011;6256;63.808;20.336;2023-02-15T06:55:09;1.70;;;1.60;;
12383;SDS011;6256;63.808;20.336;2023-02-15T06:57:34;3.87;;;1.83;;
12383;SDS011;6256;63.808;20.336;2023-02-15T07:00:00;5.43;;;2.20;;
12383;SDS011;6256;63.808;20.336;2023-02-15T07:02:26;2.63;;;1.90;;
12383;SDS011;6256;63.808;20.336;2023-02-15T07:04:52;4.87;;;2.27;;
12383;SDS011;6256;63.808;20.336;2023-02-15T07:07:18;1.97;;;1.87;;
12383;SDS011;6256;63.808;20.336;2023-02-15T07:09:44;2.87;;;2.23;;
12383;SDS011;6256;63.808;20.336;2023-02-15T07:12:10;1.87;;;1.70;;
12383;SDS011;6256;63.808;20.336;2023-02-15T07:14:54;3.70;;;2.00;;
12383;SDS011;6256;63.808;20.336;2023-02-15T07:17:20;3.67;;;2.13;;
12383;SDS011;6256;63.808;20.336;2023-02-15T07:19:45;2.50;;;1.97;;
12383;SDS011;6256;63.808;20.336;2023-02-15T07:22:11;5.93;;;1.90;;
12383;SDS011;6256;63.808;20.336;2023-02-15T07:24:37;4.13;;;2.43;;
12383;SDS011;6256;63.808;20.336;2023-02-15T07:27:02;4.37;;;2.40;;
12383;SDS011;6256;63.808;20.336;2023-02-15T07:29:28;2.10;;;1.70;;
12383;SDS011;6256;63.808;20.336;2023-02-15T07:31:54;2.30;;;2.03;;
12383;SDS011;6256;63.808;20.336;2023-02-15T07:34:20;3.60;;;2.47;;
12383;SDS011;6256;63.808;20.336;2023-02-15T07:36:46;3.23;;;2.07;;
12383;SDS011;6256;63.808;20.336;2023-02-15T07:39:12;4.93;;;2.40;;
12383;SDS011;6256;63.808;20.336;2023-02-15T07:41:37;2.67;;;2.00;;
12383;SDS011;6256;63.808;20.336;2023-02-15T07:44:03;3.20;;;2.00;;
12383;SDS011;6256;63.808;20.336;2023-02-15T07:46:29;3.83;;;2.97;;
12383;SDS011;6256;63.808;20.336;2023-02-15T07:48:55;4.50;;;3.17;;
12383;SDS011;6256;63.808;20.336;2023-02-15T07:51:21;4.30;;;2.43;;
12383;SDS011;6256;63.808;20.336;2023-02-15T07:53:46;4.90;;;2.93;;
12383;SDS011;6256;63.808;20.336;2023-02-15T07:56:13;4.00;;;2.83;;
12383;SDS011;6256;63.808;20.336;2023-02-15T07:58:39;3.17;;;2.87;;
12383;SDS011;6256;63.808;20.336;2023-02-15T08:01:18;3.77;;;2.67;;
12383;SDS011;6256;63.808;20.336;2023-02-15T08:03:45;3.40;;;2.67;;
12383;SDS011;6256;63.808;20.336;2023-02-15T08:06:11;2.97;;;2.77;;
12383;SDS011;6256;63.808;20.336;2023-02-15T08:08:38;3.70;;;2.93;;
12383;SDS011;6256;63.808;20.336;2023-02-15T08:14:16;3.53;;;2.40;;
12383;SDS011;6256;63.808;20.336;2023-02-15T08:16:50;7.67;;;2.70;;
12383;SDS011;6256;63.808;20.336;2023-02-15T08:21:44;3.80;;;2.60;;
12383;SDS011;6256;63.808;20.336;2023-02-15T08:24:12;9.33;;;3.37;;
12383;SDS011;6256;63.808;20.336;2023-02-15T08:26:40;5.47;;;3.20;;
12383;SDS011;6256;63.808;20.336;2023-02-15T08:29:06;6.70;;;3.63;;
12383;SDS011;6256;63.808;20.336;2023-02-15T08:31:33;4.10;;;2.70;;
12383;SDS011;6256;63.808;20.336;2023-02-15T08:33:59;4.47;;;3.03;;
12383;SDS011;6256;63.808;20.336;2023-02-15T08:36:26;5.93;;;2.83;;
12383;SDS011;6256;63.808;20.336;2023-02-15T08:38:53;4.00;;;2.77;;
12383;SDS011;6256;63.808;20.336;2023-02-15T08:41:20;5.50;;;3.53;;
12383;SDS011;6256;63.808;20.336;2023-02-15T08:43:58;3.93;;;2.60;;
12383;SDS011;6256;63.808;20.336;2023-02-15T08:46:26;3.50;;;2.73;;
12383;SDS011;6256;63.808;20.336;2023-02-15T08:48:53;5.30;;;2.93;;
12383;SDS011;6256;63.808;20.336;2023-02-15T08:51:20;4.90;;;3.30;;
12383;SDS011;6256;63.808;20.336;2023-02-15T08:53:48;3.73;;;2.60;;
12383;SDS011;6256;63.808;20.336;2023-02-15T08:56:16;4.47;;;2.77;;
12383;SDS011;6256;63.808;20.336;2023-02-15T08:58:43;4.33;;;2.53;;
12383;SDS011;6256;63.808;20.336;2023-02-15T09:01:13;2.40;;;2.13;;
12383;SDS011;6256;63.808;20.336;2023-02-15T09:03:43;5.37;;;2.80;;
12383;SDS011;6256;63.808;20.336;2023-02-15T09:06:10;3.97;;;2.97;;
12383;SDS011;6256;63.808;20.336;2023-02-15T09:08:36;4.93;;;3.10;;
12383;SDS011;6256;63.808;20.336;2023-02-15T09:11:06;3.67;;;2.90;;
12383;SDS011;6256;63.808;20.336;2023-02-15T09:13:34;4.43;;;3.20;;
12383;SDS011;6256;63.808;20.336;2023-02-15T09:16:04;4.40;;;2.90;;
12383;SDS011;6256;63.808;20.336;2023-02-15T09:18:32;3.67;;;2.10;;
12383;SDS011;6256;63.808;20.336;2023-02-15T09:21:08;5.90;;;3.33;;
12383;SDS011;6256;63.808;20.336;2023-02-15T09:23:36;6.17;;;3.17;;
12383;SDS011;6256;63.808;20.336;2023-02-15T09:26:02;7.03;;;2.90;;
12383;SDS011;6256;63.808;20.336;2023-02-15T09:28:29;3.53;;;2.43;;
12383;SDS011;6256;63.808;20.336;2023-02-15T09:31:03;3.60;;;2.80;;
12383;SDS011;6256;63.808;20.336;2023-02-15T09:33:40;3.03;;;2.70;;
12383;SDS011;6256;63.808;20.336;2023-02-15T09:36:13;4.37;;;2.53;;
12383;SDS011;6256;63.808;20.336;2023-02-15T09:38:39;6.10;;;3.17;;
12383;SDS011;6256;63.808;20.336;2023-02-15T09:43:42;3.33;;;2.77;;
12383;SDS011;6256;63.808;20.336;2023-02-15T10:00:44;5.47;;;2.70;;
12383;SDS011;6256;63.808;20.336;2023-02-15T10:04:03;2.67;;;2.40;;
12383;SDS011;6256;63.808;20.336;2023-02-15T10:09:02;3.97;;;2.33;;
12383;SDS011;6256;63.808;20.336;2023-02-15T10:11:52;1.93;;;1.73;;
12383;SDS011;6256;63.808;20.336;2023-02-15T10:27:55;1.80;;;1.70;;
12383;SDS011;6256;63.808;20.336;2023-02-15T10:30:34;2.83;;;2.30;;
12383;SDS011;6256;63.808;20.336;2023-02-15T10:33:07;2.87;;;1.97;;
12383;SDS011;6256;63.808;20.336;2023-02-15T10:55:09;3.37;;;1.83;;
12383;SDS011;6256;63.808;20.336;2023-02-15T11:08:31;3.43;;;2.20;;
12383;SDS011;6256;63.808;20.336;2023-02-15T11:11:05;3.23;;;2.37;;
12383;SDS011;6256;63.808;20.336;2023-02-15T11:13:35;4.40;;;2.30;;
12383;SDS011;6256;63.808;20.336;2023-02-15T11:16:15;3.33;;;2.00;;
12383;SDS011;6256;63.808;20.336;2023-02-15T11:18:49;5.13;;;2.33;;
12383;SDS011;6256;63.808;20.336;2023-02-15T11:23:54;3.60;;;1.63;;
12383;SDS011;6256;63.808;20.336;2023-02-15T11:29:13;2.07;;;1.70;;
12383;SDS011;6256;63.808;20.336;2023-02-15T11:34:40;1.73;;;1.63;;
12383;SDS011;6256;63.808;20.336;2023-02-15T11:37:40;1.90;;;1.80;;
12383;SDS011;6256;63.808;20.336;2023-02-15T11:42:46;1.67;;;1.47;;
12383;SDS011;6256;63.808;20.336;2023-02-15T11:45:22;1.63;;;1.50;;
12383;SDS011;6256;63.808;20.336;2023-02-15T11:47:56;2.23;;;1.73;;
12383;SDS011;6256;63.808;20.336;2023-02-15T11:50:23;2.03;;;1.80;;
12383;SDS011;6256;63.808;20.336;2023-02-15T11:53:01;2.17;;;1.53;;
12383;SDS011;6256;63.808;20.336;2023-02-15T11:55:56;2.27;;;1.50;;
12383;SDS011;6256;63.808;20.336;2023-02-15T12:01:11;2.10;;;1.47;;
12383;SDS011;6256;63.808;20.336;2023-02-15T12:06:25;1.50;;;1.40;;
12383;SDS011;6256;63.808;20.336;2023-02-15T12:08:55;2.50;;;1.40;;
12383;SDS011;6256;63.808;20.336;2023-02-15T12:11:46;4.67;;;1.80;;
12383;SDS011;6256;63.808;20.336;2023-02-15T12:14:12;4.13;;;2.23;;
12383;SDS011;6256;63.808;20.336;2023-02-15T12:16:42;3.23;;;1.87;;
12383;SDS011;6256;63.808;20.336;2023-02-15T12:19:51;2.37;;;1.80;;
12383;SDS011;6256;63.808;20.336;2023-02-15T12:22:02;2.70;;;1.83;;
12383;SDS011;6256;63.808;20.336;2023-02-15T12:24:30;4.73;;;2.10;;
12383;SDS011;6256;63.808;20.336;2023-02-15T12:29:42;4.00;;;1.50;;
12383;SDS011;6256;63.808;20.336;2023-02-15T12:32:18;4.90;;;2.20;;
12383;SDS011;6256;63.808;20.336;2023-02-15T12:34:47;3.77;;;2.20;;
12383;SDS011;6256;63.808;20.336;2023-02-15T12:37:25;4.80;;;2.70;;
12383;SDS011;6256;63.808;20.336;2023-02-15T12:39:55;4.70;;;2.60;;
12383;SDS011;6256;63.808;20.336;2023-02-15T12:42:26;2.40;;;2.20;;
12383;SDS011;6256;63.808;20.336;2023-02-15T12:47:44;4.03;;;1.70;;
12383;SDS011;6256;63.808;20.336;2023-02-15T12:50:14;4.50;;;2.63;;
12383;SDS011;6256;63.808;20.336;2023-02-15T12:52:47;6.07;;;2.50;;
12383;SDS011;6256;63.808;20.336;2023-02-15T12:57:48;4.17;;;2.23;;
12383;SDS011;6256;63.808;20.336;2023-02-15T13:00:29;2.43;;;1.47;;
12383;SDS011;6256;63.808;20.336;2023-02-15T13:02:57;1.83;;;1.40;;
12383;SDS011;6256;63.808;20.336;2023-02-15T13:05:31;1.70;;;1.50;;
12383;SDS011;6256;63.808;20.336;2023-02-15T13:08:04;1.50;;;1.40;;
12383;SDS011;6256;63.808;20.336;2023-02-15T13:10:42;1.63;;;1.30;;
12383;SDS011;6256;63.808;20.336;2023-02-15T13:13:20;1.20;;;1.10;;
12383;SDS011;6256;63.808;20.336;2023-02-15T13:15:53;2.57;;;1.30;;
12383;SDS011;6256;63.808;20.336;2023-02-15T13:18:38;1.43;;;1.07;;
12383;SDS011;6256;63.808;20.336;2023-02-15T13:23:46;3.13;;;1.53;;
12383;SDS011;6256;63.808;20.336;2023-02-15T13:26:16;1.50;;;1.33;;
12383;SDS011;6256;63.808;20.336;2023-02-15T13:28:46;1.40;;;1.30;;
12383;SDS011;6256;63.808;20.336;2023-02-15T13:31:18;2.23;;;1.67;;
12383;SDS011;6256;63.808;20.336;2023-02-15T13:36:49;1.57;;;1.43;;
12383;SDS011;6256;63.808;20.336;2023-02-15T13:39:20;3.80;;;2.40;;
12383;SDS011;6256;63.808;20.336;2023-02-15T13:45:19;8.07;;;2.10;;
12383;SDS011;6256;63.808;20.336;2023-02-15T13:53:11;1.90;;;1.60;;
12383;SDS011;6256;63.808;20.336;2023-02-15T14:00:59;1.83;;;1.30;;
12383;SDS011;6256;63.808;20.336;2023-02-15T14:09:40;4.20;;;1.37;;
12383;SDS011;6256;63.808;20.336;2023-02-15T14:22:46;2.67;;;1.53;;
12383;SDS011;6256;63.808;20.336;2023-02-15T14:25:37;1.60;;;1.50;;
12383;SDS011;6256;63.808;20.336;2023-02-15T14:30:55;2.03;;;1.40;;
12383;SDS011;6256;63.808;20.336;2023-02-15T14:33:29;5.37;;;1.60;;
12383;SDS011;6256;63.808;20.336;2023-02-15T14:36:04;3.37;;;1.00;;
12383;SDS011;6256;63.808;20.336;2023-02-15T14:38:36;1.97;;;0.93;;
12383;SDS011;6256;63.808;20.336;2023-02-15T14:41:59;1.57;;;1.10;;
12383;SDS011;6256;63.808;20.336;2023-02-15T14:44:39;3.57;;;1.60;;
12383;SDS011;6256;63.808;20.336;2023-02-15T14:47:22;4.63;;;1.13;;
12383;SDS011;6256;63.808;20.336;2023-02-15T14:49:55;3.87;;;0.93;;
12383;SDS011;6256;63.808;20.336;2023-02-15T14:52:21;2.93;;;1.30;;
12383;SDS011;6256;63.808;20.336;2023-02-15T14:59:57;1.93;;;1.20;;
12383;SDS011;6256;63.808;20.336;2023-02-15T15:02:50;2.03;;;1.50;;
12383;SDS011;6256;63.808;20.336;2023-02-15T15:05:19;1.70;;;1.30;;
12383;SDS011;6256;63.808;20.336;2023-02-15T15:07:55;1.43;;;1.10;;
12383;SDS011;6256;63.808;20.336;2023-02-15T15:19:03;2.47;;;1.80;;
12383;SDS011;6256;63.808;20.336;2023-02-15T15:30:02;1.10;;;1.03;;
12383;SDS011;6256;63.808;20.336;2023-02-15T15:46:31;1.50;;;1.10;;
12383;SDS011;6256;63.808;20.336;2023-02-15T15:49:10;1.67;;;1.57;;
12383;SDS011;6256;63.808;20.336;2023-02-15T15:51:41;0.83;;;0.83;;
12383;SDS011;6256;63.808;20.336;2023-02-15T15:54:12;1.20;;;1.03;;
12383;SDS011;6256;63.808;20.336;2023-02-15T15:56:41;2.10;;;1.30;;
12383;SDS011;6256;63.808;20.336;2023-02-15T15:59:15;1.63;;;1.10;;
12383;SDS011;6256;63.808;20.336;2023-02-15T16:01:50;1.40;;;1.30;;
12383;SDS011;6256;63.808;20.336;2023-02-15T16:04:24;0.93;;;0.93;;
12383;SDS011;6256;63.808;20.336;2023-02-15T16:06:51;0.93;;;0.93;;
12383;SDS011;6256;63.808;20.336;2023-02-15T16:09:19;1.20;;;1.10;;
12383;SDS011;6256;63.808;20.336;2023-02-15T16:11:48;1.33;;;1.20;;
12383;SDS011;6256;63.808;20.336;2023-02-15T16:14:26;1.77;;;1.20;;
12383;SDS011;6256;63.808;20.336;2023-02-15T16:16:57;1.63;;;1.50;;
12383;SDS011;6256;63.808;20.336;2023-02-15T16:19:43;3.77;;;1.30;;
12383;SDS011;6256;63.808;20.336;2023-02-15T16:22:30;2.33;;;1.37;;
12383;SDS011;6256;63.808;20.336;2023-02-15T16:27:43;6.27;;;1.83;;
12383;SDS011;6256;63.808;20.336;2023-02-15T16:35:30;1.37;;;1.27;;
12383;SDS011;6256;63.808;20.336;2023-02-15T16:37:57;2.07;;;1.73;;
12383;SDS011;6256;63.808;20.336;2023-02-15T16:42:50;1.33;;;1.27;;
12383;SDS011;6256;63.808;20.336;2023-02-15T16:45:21;1.70;;;1.40;;
12383;SDS011;6256;63.808;20.336;2023-02-15T16:47:52;1.70;;;1.37;;
12383;SDS011;6256;63.808;20.336;2023-02-15T16:50:24;2.03;;;1.50;;
12383;SDS011;6256;63.808;20.336;2023-02-15T16:52:55;1.40;;;1.30;;
12383;SDS011;6256;63.808;20.336;2023-02-15T16:55:26;1.83;;;1.73;;
12383;SDS011;6256;63.808;20.336;2023-02-15T16:57:59;1.70;;;1.40;;
12383;SDS011;6256;63.808;20.336;2023-02-15T17:00:31;3.63;;;1.93;;
12383;SDS011;6256;63.808;20.336;2023-02-15T17:03:03;2.17;;;1.93;;
12383;SDS011;6256;63.808;20.336;2023-02-15T17:05:32;2.70;;;2.27;;
12383;SDS011;6256;63.808;20.336;2023-02-15T17:08:10;2.13;;;1.90;;
12383;SDS011;6256;63.808;20.336;2023-02-15T17:10:46;3.83;;;2.00;;
12383;SDS011;6256;63.808;20.336;2023-02-15T17:13:28;2.93;;;2.07;;
12383;SDS011;6256;63.808;20.336;2023-02-15T17:18:27;3.00;;;2.00;;
12383;SDS011;6256;63.808;20.336;2023-02-15T17:21:21;1.97;;;1.77;;
12383;SDS011;6256;63.808;20.336;2023-02-15T17:23:56;2.83;;;2.27;;
12383;SDS011;6256;63.808;20.336;2023-02-15T17:26:35;2.50;;;1.73;;
12383;SDS011;6256;63.808;20.336;2023-02-15T17:31:47;2.57;;;2.00;;
12383;SDS011;6256;63.808;20.336;2023-02-15T17:37:13;2.17;;;1.80;;
12383;SDS011;6256;63.808;20.336;2023-02-15T17:39:47;2.83;;;2.27;;
12383;SDS011;6256;63.808;20.336;2023-02-15T17:42:13;2.57;;;2.10;;
12383;SDS011;6256;63.808;20.336;2023-02-15T17:44:39;2.97;;;2.43;;
12383;SDS011;6256;63.808;20.336;2023-02-15T17:47:05;2.43;;;1.70;;
12383;SDS011;6256;63.808;20.336;2023-02-15T17:49:30;5.07;;;2.80;;
12383;SDS011;6256;63.808;20.336;2023-02-15T17:52:00;2.77;;;1.60;;
12383;SDS011;6256;63.808;20.336;2023-02-15T17:54:26;2.93;;;2.00;;
12383;SDS011;6256;63.808;20.336;2023-02-15T17:57:12;3.13;;;1.90;;
12383;SDS011;6256;63.808;20.336;2023-02-15T17:59:39;3.07;;;2.27;;
12383;SDS011;6256;63.808;20.336;2023-02-15T18:02:23;4.77;;;2.43;;
12383;SDS011;6256;63.808;20.336;2023-02-15T18:05:12;3.53;;;2.33;;
12383;SDS011;6256;63.808;20.336;2023-02-15T18:07:57;5.50;;;3.63;;
12383;SDS011;6256;63.808;20.336;2023-02-15T18:10:41;3.53;;;2.67;;
12383;SDS011;6256;63.808;20.336;2023-02-15T18:13:26;7.37;;;2.67;;
12383;SDS011;6256;63.808;20.336;2023-02-15T18:15:51;4.50;;;2.37;;
12383;SDS011;6256;63.808;20.336;2023-02-15T18:18:17;5.30;;;2.73;;
12383;SDS011;6256;63.808;20.336;2023-02-15T18:20:43;3.80;;;2.37;;
12383;SDS011;6256;63.808;20.336;2023-02-15T18:23:15;4.40;;;3.00;;
12383;SDS011;6256;63.808;20.336;2023-02-15T18:25:41;7.47;;;3.63;;
12383;SDS011;6256;63.808;20.336;2023-02-15T18:28:10;7.83;;;3.07;;
12383;SDS011;6256;63.808;20.336;2023-02-15T18:30:36;8.73;;;3.23;;
12383;SDS011;6256;63.808;20.336;2023-02-15T18:33:09;9.37;;;2.50;;
12383;SDS011;6256;63.808;20.336;2023-02-15T18:35:49;6.93;;;3.13;;
12383;SDS011;6256;63.808;20.336;2023-02-15T18:38:15;7.63;;;3.67;;
12383;SDS011;6256;63.808;20.336;2023-02-15T18:40:44;5.53;;;3.47;;
12383;SDS011;6256;63.808;20.336;2023-02-15T18:43:12;7.27;;;3.93;;
12383;SDS011;6256;63.808;20.336;2023-02-15T18:45:38;6.93;;;3.83;;
12383;SDS011;6256;63.808;20.336;2023-02-15T18:48:05;7.07;;;4.00;;
12383;SDS011;6256;63.808;20.336;2023-02-15T18:50:34;7.63;;;3.87;;
12383;SDS011;6256;63.808;20.336;2023-02-15T18:53:01;9.27;;;3.97;;